createdAt,value
2019-03-15T00:01:44.085Z,82.80
2019-03-15T00:04:12.644Z,83.53
2019-03-15T00:06:41.067Z,84.40
2019-03-15T00:09:09.605Z,82.97
2019-03-15T00:11:38.099Z,84.03
2019-03-15T00:14:06.661Z,83.50
2019-03-15T00:16:35.253Z,75.73
2019-03-15T00:19:03.737Z,65.60
2019-03-15T00:21:32.161Z,74.13
2019-03-15T00:24:00.613Z,73.30
2019-03-15T00:26:29.170Z,75.17
2019-03-15T00:28:57.598Z,70.43
2019-03-15T00:31:26.125Z,64.37
2019-03-15T00:33:54.606Z,72.20
2019-03-15T00:36:23.107Z,64.60
2019-03-15T00:38:51.553Z,46.87
2019-03-15T00:41:20.049Z,28.63
2019-03-15T00:43:50.169Z,10.43
2019-03-15T00:46:18.760Z,8.53
2019-03-15T00:48:47.246Z,7.20
2019-03-15T00:51:15.769Z,5.77
2019-03-15T00:53:44.281Z,5.10
2019-03-15T00:56:12.776Z,6.10
2019-03-15T00:58:41.266Z,8.80
2019-03-15T01:01:10.201Z,8.00
2019-03-15T01:03:38.771Z,9.40
2019-03-15T01:06:07.179Z,15.73
2019-03-15T01:08:35.702Z,12.87
2019-03-15T01:11:04.208Z,13.70
2019-03-15T01:13:32.682Z,17.30
2019-03-15T01:16:01.271Z,26.27
2019-03-15T01:18:29.819Z,20.00
2019-03-15T01:20:58.443Z,24.10
2019-03-15T01:23:27.044Z,38.00
2019-03-15T01:25:55.531Z,35.17
2019-03-15T01:28:24.088Z,24.47
2019-03-15T01:30:52.607Z,35.07
2019-03-15T01:33:21.096Z,35.93
2019-03-15T01:35:49.506Z,46.27
2019-03-15T01:38:17.974Z,68.50
2019-03-15T01:40:48.785Z,51.47
2019-03-15T01:43:16.696Z,34.60
2019-03-15T01:45:45.280Z,18.67
2019-03-15T01:48:13.695Z,40.47
2019-03-15T01:50:42.182Z,59.67
2019-03-15T01:53:10.708Z,60.60
2019-03-15T01:55:39.196Z,69.33
2019-03-15T01:58:07.598Z,52.60
2019-03-15T02:00:36.117Z,58.63
2019-03-15T02:03:04.622Z,63.30
2019-03-15T02:05:33.182Z,71.90
2019-03-15T02:08:01.728Z,80.60
2019-03-15T02:10:30.148Z,66.73
2019-03-15T02:12:58.630Z,65.53
2019-03-15T02:15:27.165Z,71.63
2019-03-15T02:17:55.652Z,82.27
2019-03-15T02:20:24.134Z,67.00
2019-03-15T02:22:52.660Z,86.97
2019-03-15T02:25:21.068Z,86.93
2019-03-15T02:27:49.562Z,86.20
2019-03-15T02:30:18.087Z,88.17
2019-03-15T02:32:46.574Z,86.20
2019-03-15T02:35:15.315Z,85.07
2019-03-15T02:37:44.016Z,85.23
2019-03-15T02:40:12.962Z,86.33
2019-03-15T02:42:41.753Z,91.10
2019-03-15T02:45:10.303Z,87.93
2019-03-15T02:47:39.045Z,85.63
2019-03-15T02:50:08.199Z,84.73
2019-03-15T02:52:36.712Z,84.93
2019-03-15T02:55:06.276Z,83.87
2019-03-15T02:57:35.524Z,85.70
2019-03-15T03:00:06.157Z,84.17
2019-03-15T03:02:34.656Z,83.50
2019-03-15T03:05:04.147Z,83.60
2019-03-15T03:07:32.672Z,84.07
2019-03-15T03:10:02.130Z,82.00
2019-03-15T03:12:31.039Z,83.40
2019-03-15T03:14:59.643Z,82.43
2019-03-15T03:17:28.055Z,79.83
2019-03-15T03:19:56.472Z,84.13
2019-03-15T03:22:24.944Z,84.47
2019-03-15T03:24:53.406Z,82.77
2019-03-15T03:27:21.892Z,82.63
2019-03-15T03:29:50.354Z,82.37
2019-03-15T03:32:18.920Z,83.03
2019-03-15T03:34:47.409Z,81.97
2019-03-15T03:37:16.007Z,81.53
2019-03-15T03:39:44.505Z,81.80
2019-03-15T03:42:13.184Z,82.23
2019-03-15T03:44:41.671Z,82.23
2019-03-15T03:47:10.163Z,82.17
2019-03-15T03:49:38.839Z,81.83
2019-03-15T03:52:07.441Z,81.73
2019-03-15T03:54:35.939Z,82.97
2019-03-15T03:57:04.827Z,80.97
2019-03-15T03:59:33.415Z,82.13
2019-03-15T04:02:01.774Z,82.03
2019-03-15T04:04:30.186Z,82.10
2019-03-15T04:06:58.713Z,82.53
2019-03-15T04:09:27.151Z,80.43
2019-03-15T04:11:56.230Z,70.30
2019-03-15T04:14:25.022Z,66.77
2019-03-15T04:16:53.491Z,60.50
2019-03-15T04:19:21.979Z,34.57
2019-03-15T04:21:50.502Z,41.13
2019-03-15T04:24:18.919Z,55.90
2019-03-15T04:26:47.341Z,60.27
2019-03-15T04:29:15.861Z,64.83
2019-03-15T04:31:44.377Z,44.50
2019-03-15T04:34:15.849Z,47.83
2019-03-15T04:36:44.378Z,71.97
2019-03-15T04:39:14.157Z,81.90
2019-03-15T04:41:42.754Z,79.37
2019-03-15T04:44:11.203Z,73.50
2019-03-15T04:46:39.697Z,81.10
2019-03-15T04:49:08.185Z,81.30
2019-03-15T04:51:36.732Z,80.07
2019-03-15T04:54:05.872Z,80.30
2019-03-15T04:56:34.599Z,80.23
2019-03-15T04:59:03.189Z,81.23
2019-03-15T05:01:31.605Z,78.80
2019-03-15T05:04:00.093Z,55.90
2019-03-15T05:06:28.583Z,49.83
2019-03-15T05:08:57.147Z,40.67
2019-03-15T05:11:25.709Z,37.27
2019-03-15T05:13:54.230Z,53.77
2019-03-15T05:16:22.664Z,58.73
2019-03-15T05:18:51.079Z,49.83
2019-03-15T05:21:19.680Z,46.90
2019-03-15T05:23:48.312Z,59.53
2019-03-15T05:26:16.857Z,56.37
2019-03-15T05:28:45.301Z,54.83
2019-03-15T05:31:13.731Z,67.83
2019-03-15T05:33:42.283Z,46.23
2019-03-15T05:36:10.934Z,46.80
2019-03-15T05:38:39.345Z,50.43
2019-03-15T05:41:07.907Z,40.23
2019-03-15T05:43:36.470Z,35.73
2019-03-15T05:46:04.954Z,54.10
2019-03-15T05:48:33.442Z,62.87
2019-03-15T05:51:01.963Z,71.03
2019-03-15T05:53:30.477Z,61.23
2019-03-15T05:55:58.955Z,66.30
2019-03-15T05:58:27.501Z,71.13
2019-03-15T06:00:55.908Z,60.40
2019-03-15T06:03:24.391Z,49.57
2019-03-15T06:05:52.980Z,54.40
2019-03-15T06:08:21.481Z,72.33
2019-03-15T06:10:50.327Z,82.00
2019-03-15T06:13:19.025Z,73.90
2019-03-15T06:15:47.510Z,80.40
2019-03-15T06:18:16.007Z,72.50
2019-03-15T06:20:44.550Z,59.30
2019-03-15T06:23:13.025Z,65.20
2019-03-15T06:25:41.546Z,72.07
2019-03-15T06:28:10.149Z,79.50
2019-03-15T06:30:38.720Z,76.23
2019-03-15T06:33:07.284Z,78.93
2019-03-15T06:35:35.886Z,66.63
2019-03-15T06:38:04.289Z,69.70
2019-03-15T06:40:32.783Z,72.17
2019-03-15T06:43:01.247Z,61.50
2019-03-15T06:45:31.800Z,53.47
2019-03-15T06:48:00.877Z,48.40
2019-03-15T06:50:29.550Z,50.63
2019-03-15T06:52:58.023Z,43.10
2019-03-15T06:55:26.583Z,61.83
2019-03-15T06:57:55.104Z,77.27
2019-03-15T07:00:23.589Z,59.83
2019-03-15T07:02:52.212Z,55.17
2019-03-15T07:05:20.987Z,42.73
2019-03-15T07:07:50.421Z,27.00
2019-03-15T07:10:18.851Z,15.73
2019-03-15T07:12:47.341Z,34.80
2019-03-15T07:15:15.902Z,33.47
2019-03-15T07:17:44.344Z,31.13
2019-03-15T07:20:16.891Z,56.97
2019-03-15T07:22:45.366Z,53.33
2019-03-15T07:25:13.990Z,58.37
2019-03-15T07:27:43.165Z,31.60
2019-03-15T07:30:15.672Z,45.23
2019-03-15T07:32:44.118Z,63.60
2019-03-15T07:35:12.604Z,50.60
2019-03-15T07:37:41.016Z,40.97
2019-03-15T07:40:11.862Z,34.00
2019-03-15T07:42:40.356Z,41.80
2019-03-15T07:45:10.486Z,54.43
2019-03-15T07:47:39.053Z,53.73
2019-03-15T07:50:14.268Z,48.37
2019-03-15T07:52:41.943Z,49.00
2019-03-15T07:55:10.957Z,51.87
2019-03-15T07:57:39.414Z,50.47
2019-03-15T08:00:10.809Z,57.47
2019-03-15T08:02:39.399Z,64.97
2019-03-15T08:05:08.858Z,51.83
2019-03-15T08:07:44.310Z,50.27
2019-03-15T08:10:13.667Z,69.63
2019-03-15T08:12:42.154Z,77.93
2019-03-15T08:15:12.189Z,77.20
2019-03-15T08:17:40.746Z,71.07
2019-03-15T08:20:13.691Z,68.20
2019-03-15T08:22:42.262Z,65.10
2019-03-15T08:25:11.725Z,65.20
2019-03-15T08:27:40.217Z,68.63
2019-03-15T08:30:13.547Z,55.10
2019-03-15T08:32:43.865Z,60.60
2019-03-15T08:35:12.654Z,60.17
2019-03-15T08:37:41.067Z,74.67
2019-03-15T08:40:12.855Z,80.87
2019-03-15T08:42:41.348Z,80.07
2019-03-15T08:45:14.811Z,82.03
2019-03-15T08:47:43.270Z,80.57
2019-03-15T08:50:16.145Z,72.67
2019-03-15T08:52:44.644Z,81.13
2019-03-15T08:55:13.856Z,69.30
2019-03-15T08:57:42.351Z,76.67
2019-03-15T09:00:17.897Z,61.60
2019-03-15T09:02:46.448Z,45.53
2019-03-15T09:05:15.869Z,66.97
2019-03-15T09:07:44.534Z,70.13
2019-03-15T09:10:24.005Z,78.53
2019-03-15T09:12:50.492Z,83.33
2019-03-15T09:15:19.482Z,79.07
2019-03-15T09:17:48.827Z,67.63
2019-03-15T09:20:17.503Z,80.47
2019-03-15T09:22:46.097Z,81.63
2019-03-15T09:25:19.879Z,79.70
2019-03-15T09:27:46.131Z,80.97
2019-03-15T09:30:23.695Z,66.17
2019-03-15T09:32:47.819Z,81.00
2019-03-15T09:35:16.354Z,71.50
2019-03-15T09:37:47.234Z,68.20
2019-03-15T09:40:15.887Z,83.40
2019-03-15T09:42:44.387Z,81.30
2019-03-15T09:45:14.210Z,84.87
2019-03-15T09:47:42.710Z,77.33
2019-03-15T09:50:24.096Z,80.40
2019-03-15T09:52:47.564Z,81.57
2019-03-15T09:55:16.157Z,80.57
2019-03-15T09:57:44.694Z,81.23
2019-03-15T10:00:17.786Z,80.43
2019-03-15T10:02:46.789Z,80.50
2019-03-15T10:05:15.374Z,80.60
2019-03-15T10:07:44.209Z,81.83
2019-03-15T10:10:18.258Z,80.40
2019-03-15T10:12:46.216Z,81.33
2019-03-15T10:15:15.667Z,81.53
2019-03-15T10:17:44.170Z,82.10
2019-03-15T10:20:13.391Z,81.93
2019-03-15T10:22:42.277Z,81.63
2019-03-15T10:25:15.006Z,70.13
2019-03-15T10:27:43.553Z,82.63
2019-03-15T10:30:17.013Z,81.77
2019-03-15T10:32:45.578Z,82.00
2019-03-15T10:35:14.030Z,81.83
2019-03-15T10:37:42.461Z,82.67
2019-03-15T10:40:22.920Z,83.70
2019-03-15T10:42:51.410Z,78.20
2019-03-15T10:45:19.987Z,71.00
2019-03-15T10:47:48.562Z,70.10
2019-03-15T10:50:18.219Z,74.10
2019-03-15T10:52:46.636Z,81.77
2019-03-15T10:55:15.347Z,81.27
2019-03-15T10:57:43.821Z,82.00
2019-03-15T11:00:22.208Z,81.80
2019-03-15T11:02:50.780Z,84.13
2019-03-15T11:05:19.269Z,83.30
2019-03-15T11:07:47.911Z,82.97
2019-03-15T11:10:16.398Z,82.47
2019-03-15T11:12:44.892Z,81.77
2019-03-15T11:15:16.679Z,82.67
2019-03-15T11:17:45.209Z,82.20
2019-03-15T11:20:14.622Z,83.47
2019-03-15T11:22:43.230Z,83.63
2019-03-15T11:25:12.170Z,83.77
2019-03-15T11:27:40.616Z,82.50
2019-03-15T11:30:14.904Z,82.67
2019-03-15T11:32:43.390Z,82.73
2019-03-15T11:35:12.521Z,81.77
2019-03-15T11:37:41.080Z,82.90
2019-03-15T11:40:14.778Z,83.03
2019-03-15T11:42:43.363Z,85.37
2019-03-15T11:45:12.777Z,82.07
2019-03-15T11:48:01.138Z,66.73
2019-03-15T11:50:16.741Z,82.70
2019-03-15T11:52:45.237Z,70.93
2019-03-15T11:55:13.865Z,66.57
2019-03-15T11:57:42.484Z,44.00
2019-03-15T12:00:18.161Z,45.30
2019-03-15T12:02:46.694Z,73.03
2019-03-15T12:05:15.560Z,68.33
2019-03-15T12:07:44.451Z,79.20
2019-03-15T12:10:14.066Z,81.80
2019-03-15T12:12:42.628Z,83.37
2019-03-15T12:15:20.747Z,81.63
2019-03-15T12:17:49.228Z,82.27
2019-03-15T12:20:17.714Z,53.70
2019-03-15T12:22:46.224Z,4.07
2019-03-15T12:25:14.649Z,36.53
2019-03-15T12:27:43.137Z,3.80
2019-03-15T12:30:15.972Z,11.33
2019-03-15T12:32:44.469Z,55.00
2019-03-15T12:35:16.463Z,81.73
2019-03-15T12:37:44.968Z,40.97
2019-03-15T12:40:14.732Z,3.27
2019-03-15T12:42:43.227Z,1.50
2019-03-15T12:45:12.430Z,4.00
2019-03-15T12:47:40.858Z,27.20
2019-03-15T12:50:11.672Z,22.10
2019-03-15T12:52:47.048Z,27.30
2019-03-15T12:55:12.629Z,12.40
2019-03-15T12:57:41.043Z,8.53
2019-03-15T13:00:12.838Z,43.17
2019-03-15T13:02:41.316Z,56.63
2019-03-15T13:05:09.882Z,14.87
2019-03-15T13:07:38.522Z,36.03
2019-03-15T13:10:10.521Z,31.30
2019-03-15T13:12:39.116Z,17.87
2019-03-15T13:15:10.379Z,3.00
2019-03-15T13:17:38.872Z,3.40
2019-03-15T13:20:10.017Z,17.63
2019-03-15T13:22:38.689Z,51.17
2019-03-15T13:25:09.413Z,49.17
2019-03-15T13:27:37.922Z,38.47
2019-03-15T13:30:09.450Z,3.10
2019-03-15T13:32:37.997Z,2.63
2019-03-15T13:35:07.460Z,36.20
2019-03-15T13:37:36.066Z,33.23
2019-03-15T13:40:10.858Z,3.07
2019-03-15T13:42:39.386Z,5.30
2019-03-15T13:45:10.350Z,3.00
2019-03-15T13:47:38.904Z,3.87
2019-03-15T13:50:16.382Z,7.70
2019-03-15T13:52:44.998Z,6.00
2019-03-15T13:55:13.608Z,2.60
2019-03-15T13:57:42.154Z,4.13
2019-03-15T14:00:13.220Z,2.97
2019-03-15T14:02:41.710Z,3.40
2019-03-15T14:05:10.360Z,3.07
2019-03-15T14:07:38.782Z,4.57
2019-03-15T14:10:15.478Z,3.77
2019-03-15T14:12:43.975Z,15.00
2019-03-15T14:15:13.524Z,4.73
2019-03-15T14:17:42.112Z,4.00
2019-03-15T14:20:11.730Z,3.00
2019-03-15T14:22:40.282Z,2.93
2019-03-15T14:25:18.985Z,3.57
2019-03-15T14:27:47.599Z,2.50
2019-03-15T14:30:16.051Z,3.30
2019-03-15T14:32:44.634Z,3.73
2019-03-15T14:35:13.200Z,3.13
2019-03-15T14:37:41.998Z,3.80
2019-03-15T14:40:11.776Z,3.73
2019-03-15T14:42:40.363Z,3.00
2019-03-15T14:45:11.529Z,3.37
2019-03-15T14:47:40.031Z,3.50
2019-03-15T14:50:10.854Z,4.10
2019-03-15T14:52:39.684Z,4.03
2019-03-15T14:55:09.939Z,3.20
2019-03-15T14:57:51.332Z,3.93
2019-03-15T15:00:14.409Z,3.93
2019-03-15T15:02:43.351Z,3.57
2019-03-15T15:05:12.363Z,3.27
2019-03-15T15:07:41.024Z,4.60
2019-03-15T15:10:13.610Z,4.10
2019-03-15T15:12:42.244Z,4.60
2019-03-15T15:15:12.523Z,5.37
2019-03-15T15:17:41.093Z,4.50
2019-03-15T15:20:10.713Z,4.87
2019-03-15T15:22:39.307Z,4.00
2019-03-15T15:25:12.209Z,4.53
2019-03-15T15:27:40.763Z,4.00
2019-03-15T15:30:14.091Z,4.30
2019-03-15T15:32:42.555Z,4.27
2019-03-15T15:35:11.819Z,3.83
2019-03-15T15:37:40.579Z,4.40
2019-03-15T15:40:19.926Z,3.60
2019-03-15T15:42:48.439Z,4.43
2019-03-15T15:45:17.062Z,3.73
2019-03-15T15:47:45.571Z,4.53
2019-03-15T15:50:14.850Z,4.83
2019-03-15T15:52:46.177Z,4.97
2019-03-15T15:55:15.435Z,4.03
2019-03-15T15:57:43.981Z,4.90
2019-03-15T16:00:14.681Z,5.47
2019-03-15T16:02:44.822Z,5.53
2019-03-15T16:05:13.423Z,4.70
2019-03-15T16:07:41.995Z,5.33
2019-03-15T16:10:17.970Z,4.40
2019-03-15T16:12:45.666Z,5.23
2019-03-15T16:15:17.404Z,4.90
2019-03-15T16:17:46.132Z,5.60
2019-03-15T16:20:14.782Z,5.90
2019-03-15T16:22:43.263Z,6.13
2019-03-15T16:25:12.524Z,5.50
2019-03-15T16:27:41.949Z,7.00
2019-03-15T16:30:15.628Z,5.63
2019-03-15T16:32:44.164Z,6.80
2019-03-15T16:35:13.704Z,5.70
2019-03-15T16:37:42.286Z,5.60
2019-03-15T16:40:14.436Z,5.90
2019-03-15T16:42:43.094Z,7.73
2019-03-15T16:45:29.343Z,8.27
2019-03-15T16:47:57.856Z,7.80
2019-03-15T16:50:27.558Z,7.57
2019-03-15T16:52:56.150Z,11.87
2019-03-15T16:55:24.861Z,6.77
2019-03-15T16:57:53.417Z,6.07
2019-03-15T17:00:24.779Z,5.57
2019-03-15T17:02:53.404Z,6.67
2019-03-15T17:05:21.966Z,5.37
2019-03-15T17:07:50.822Z,4.80
2019-03-15T17:10:20.041Z,5.67
2019-03-15T17:12:48.733Z,6.30
2019-03-15T17:15:25.647Z,4.67
2019-03-15T17:17:54.341Z,4.53
2019-03-15T17:20:22.976Z,4.47
2019-03-15T17:22:51.675Z,4.40
2019-03-15T17:25:20.314Z,4.90
2019-03-15T17:27:48.880Z,4.50
2019-03-15T17:30:17.914Z,4.20
2019-03-15T17:32:46.883Z,4.30
2019-03-15T17:35:17.599Z,4.20
2019-03-15T17:37:46.250Z,4.23
2019-03-15T17:40:21.775Z,4.73
2019-03-15T17:42:50.557Z,4.17
2019-03-15T17:45:19.215Z,5.90
2019-03-15T17:47:47.913Z,5.40
2019-03-15T17:50:18.658Z,5.33
2019-03-15T17:52:48.009Z,5.17
2019-03-15T17:55:16.956Z,4.83
2019-03-15T17:57:46.240Z,5.53
2019-03-15T18:00:19.115Z,5.73
2019-03-15T18:02:47.676Z,4.87
2019-03-15T18:05:16.396Z,4.20
2019-03-15T18:07:45.078Z,4.33
2019-03-15T18:10:13.639Z,3.63
2019-03-15T18:12:42.308Z,3.33
2019-03-15T18:15:11.222Z,3.33
2019-03-15T18:17:39.722Z,3.93
2019-03-15T18:20:09.215Z,4.07
2019-03-15T18:22:37.703Z,4.13
2019-03-15T18:25:07.926Z,3.90
2019-03-15T18:27:36.543Z,4.03
2019-03-15T18:30:13.293Z,4.80
2019-03-15T18:32:41.907Z,3.63
2019-03-15T18:35:11.366Z,3.70
2019-03-15T18:37:39.952Z,4.77
2019-03-15T18:40:15.899Z,4.83
2019-03-15T18:42:44.467Z,4.93
2019-03-15T18:45:14.081Z,7.67
2019-03-15T18:47:42.748Z,16.67
2019-03-15T18:50:18.944Z,6.43
2019-03-15T18:52:47.653Z,5.33
2019-03-15T18:55:16.282Z,4.33
2019-03-15T18:57:46.375Z,5.87
2019-03-15T19:00:23.942Z,5.43
2019-03-15T19:02:52.585Z,3.23
2019-03-15T19:05:21.137Z,3.90
2019-03-15T19:07:49.806Z,4.97
2019-03-15T19:10:18.370Z,4.83
2019-03-15T19:12:46.919Z,4.03
2019-03-15T19:15:16.454Z,4.50
2019-03-15T19:17:44.910Z,3.93
2019-03-15T19:20:14.642Z,4.13
2019-03-15T19:22:44.859Z,6.27
2019-03-15T19:25:14.250Z,11.23
2019-03-15T19:27:42.895Z,4.60
2019-03-15T19:30:12.955Z,4.73
2019-03-15T19:32:41.538Z,6.10
2019-03-15T19:35:10.473Z,5.47
2019-03-15T19:37:39.149Z,5.03
2019-03-15T19:40:14.916Z,6.90
2019-03-15T19:42:45.466Z,24.37
2019-03-15T19:45:14.718Z,49.77
2019-03-15T19:47:43.678Z,52.50
2019-03-15T19:50:22.824Z,17.33
2019-03-15T19:52:51.594Z,22.57
2019-03-15T19:55:20.072Z,9.10
2019-03-15T19:57:48.706Z,19.63
2019-03-15T20:00:23.655Z,12.67
2019-03-15T20:02:52.590Z,8.37
2019-03-15T20:05:21.183Z,41.40
2019-03-15T20:07:51.114Z,36.77
2019-03-15T20:10:19.806Z,10.23
2019-03-15T20:12:48.283Z,20.63
2019-03-15T20:15:17.350Z,46.97
2019-03-15T20:17:45.941Z,72.77
2019-03-15T20:20:18.509Z,8.07
2019-03-15T20:22:46.989Z,5.80
2019-03-15T20:25:16.161Z,5.70
2019-03-15T20:27:46.152Z,7.43
2019-03-15T20:30:23.126Z,6.37
2019-03-15T20:32:50.620Z,4.47
2019-03-15T20:35:20.975Z,6.33
2019-03-15T20:37:51.920Z,5.17
2019-03-15T20:40:22.707Z,6.73
2019-03-15T20:42:52.447Z,5.80
2019-03-15T20:45:22.634Z,4.90
2019-03-15T20:47:51.226Z,4.00
2019-03-15T20:50:22.495Z,3.50
2019-03-15T20:52:50.958Z,3.67
2019-03-15T20:55:19.687Z,4.80
2019-03-15T20:57:48.184Z,3.87
2019-03-15T21:00:20.247Z,3.50
2019-03-15T21:02:50.420Z,4.40
2019-03-15T21:05:18.885Z,5.00
2019-03-15T21:07:47.848Z,4.73
2019-03-15T21:10:19.354Z,4.93
2019-03-15T21:12:47.683Z,4.00
2019-03-15T21:15:16.733Z,3.70
2019-03-15T21:17:45.185Z,4.47
2019-03-15T21:20:18.516Z,3.50
2019-03-15T21:22:47.098Z,3.90
2019-03-15T21:25:18.821Z,4.33
2019-03-15T21:27:54.197Z,3.30
2019-03-15T21:30:19.026Z,5.77
2019-03-15T21:32:47.686Z,3.40
2019-03-15T21:35:16.658Z,2.70
2019-03-15T21:37:46.278Z,7.43
2019-03-15T21:40:18.979Z,28.37
2019-03-15T21:42:47.552Z,69.70
2019-03-15T21:45:16.787Z,54.73
2019-03-15T21:47:45.405Z,50.37
2019-03-15T21:50:19.178Z,65.57
2019-03-15T21:52:47.762Z,77.53
2019-03-15T21:55:16.344Z,84.17
2019-03-15T21:57:44.829Z,82.33
2019-03-15T22:00:20.461Z,84.80
2019-03-15T22:02:48.949Z,82.97
2019-03-15T22:05:17.434Z,79.87
2019-03-15T22:07:46.059Z,82.33
2019-03-15T22:10:15.608Z,85.90
2019-03-15T22:12:44.100Z,82.63
2019-03-15T22:15:13.473Z,82.20
2019-03-15T22:17:43.717Z,81.80
2019-03-15T22:20:14.965Z,82.20
2019-03-15T22:22:43.566Z,81.90
2019-03-15T22:25:12.160Z,84.57
2019-03-15T22:27:40.803Z,83.13
2019-03-15T22:30:13.442Z,81.67
2019-03-15T22:32:41.940Z,83.67
2019-03-15T22:35:10.583Z,81.80
2019-03-15T22:37:39.112Z,82.10
2019-03-15T22:40:10.024Z,81.37
2019-03-15T22:42:38.541Z,82.23
2019-03-15T22:45:09.798Z,81.77
2019-03-15T22:47:38.791Z,81.63
2019-03-15T22:50:11.497Z,81.77
2019-03-15T22:52:40.201Z,82.07
2019-03-15T22:55:09.874Z,85.53
2019-03-15T22:57:38.358Z,82.70
2019-03-15T23:00:16.194Z,82.47
2019-03-15T23:02:44.805Z,81.97
2019-03-15T23:05:13.337Z,81.40
2019-03-15T23:07:42.038Z,83.63
2019-03-15T23:10:10.922Z,80.17
2019-03-15T23:12:39.422Z,81.63
2019-03-15T23:15:09.727Z,80.87
2019-03-15T23:17:38.299Z,81.33
2019-03-15T23:20:08.836Z,80.77
2019-03-15T23:22:37.359Z,81.83
2019-03-15T23:25:06.802Z,82.30
2019-03-15T23:27:35.441Z,80.97
2019-03-15T23:30:14.236Z,2.63
2019-03-15T23:32:42.792Z,39.20
2019-03-15T23:35:11.419Z,82.10
2019-03-15T23:37:39.949Z,80.50
2019-03-15T23:40:10.925Z,80.87
2019-03-15T23:42:40.300Z,81.07
2019-03-15T23:45:09.966Z,82.40
2019-03-15T23:47:38.601Z,71.53
2019-03-15T23:50:09.852Z,71.90
2019-03-15T23:52:38.438Z,78.47
2019-03-15T23:55:06.922Z,66.27
2019-03-15T23:57:35.486Z,73.60
